createdAt,value
2022-08-17T00:02:48.551Z,65.67
2022-08-17T00:06:14.423Z,65.69
2022-08-17T00:09:21.089Z,65.73
2022-08-17T00:12:40.764Z,65.68
2022-08-17T00:15:36.706Z,65.55
2022-08-17T00:19:06.512Z,65.52
2022-08-17T00:22:28.738Z,65.63
2022-08-17T00:25:03.304Z,65.72
2022-08-17T00:28:09.342Z,65.66
2022-08-17T00:31:16.527Z,65.62
2022-08-17T00:34:22.806Z,65.73
2022-08-17T00:37:29.669Z,65.87
2022-08-17T00:40:44.607Z,66.02
2022-08-17T00:44:07.823Z,66.07
2022-08-17T00:47:14.299Z,66.09
2022-08-17T00:50:23.613Z,66.26
2022-08-17T00:53:29.248Z,66.34
2022-08-17T00:56:38.809Z,66.36
2022-08-17T00:59:46.817Z,66.36
2022-08-17T01:02:56.512Z,66.47
2022-08-17T01:06:04.580Z,66.51
2022-08-17T01:09:12.582Z,66.41
2022-08-17T01:12:18.688Z,66.40
2022-08-17T01:15:24.907Z,66.44
2022-08-17T01:18:31.797Z,66.61
2022-08-17T01:21:57.811Z,66.64
2022-08-17T01:25:09.515Z,66.66
2022-08-17T01:28:36.401Z,66.73
2022-08-17T01:31:23.691Z,66.77
2022-08-17T01:34:43.968Z,66.88
2022-08-17T01:37:48.113Z,67.00
2022-08-17T01:40:57.688Z,67.13
2022-08-17T01:44:19.160Z,67.10
2022-08-17T01:47:24.941Z,67.21
2022-08-17T01:50:34.977Z,67.39
2022-08-17T01:53:49.826Z,67.47
2022-08-17T01:56:59.171Z,67.50
2022-08-17T02:00:04.816Z,67.52
2022-08-17T02:03:10.284Z,67.39
2022-08-17T02:06:27.462Z,67.31
2022-08-17T02:09:29.776Z,67.47
2022-08-17T02:12:38.865Z,67.53
2022-08-17T02:15:41.507Z,67.46
2022-08-17T02:18:47.211Z,67.60
2022-08-17T02:21:53.402Z,67.81
2022-08-17T02:25:02.095Z,67.95
2022-08-17T02:28:06.044Z,67.94
2022-08-17T02:31:11.995Z,67.84
2022-08-17T02:34:17.793Z,67.84
2022-08-17T02:37:25.615Z,67.93
2022-08-17T02:40:35.950Z,67.96
2022-08-17T02:43:38.678Z,68.03
2022-08-17T02:46:44.542Z,67.95
2022-08-17T02:49:55.474Z,67.87
2022-08-17T02:53:04.585Z,67.84
2022-08-17T02:56:10.410Z,68.00
2022-08-17T02:59:15.360Z,68.18
2022-08-17T03:02:22.137Z,68.28
2022-08-17T03:05:30.168Z,68.45
2022-08-17T03:08:37.002Z,68.50
2022-08-17T03:11:41.778Z,68.44
2022-08-17T03:14:47.103Z,68.48
2022-08-17T03:17:54.803Z,68.48
2022-08-17T03:21:02.008Z,68.47
2022-08-17T03:24:11.610Z,68.51
2022-08-17T03:27:20.767Z,68.53
2022-08-17T03:30:28.546Z,68.58
2022-08-17T03:33:34.539Z,68.67
2022-08-17T03:36:39.573Z,68.84
2022-08-17T03:39:47.315Z,68.88
2022-08-17T03:42:54.250Z,68.84
2022-08-17T03:46:33.829Z,68.94
2022-08-17T03:49:44.260Z,68.96
2022-08-17T03:53:07.578Z,68.83
2022-08-17T03:56:35.553Z,68.83
2022-08-17T03:59:40.555Z,68.86
2022-08-17T04:02:48.653Z,68.90
2022-08-17T04:05:55.116Z,68.97
2022-08-17T04:09:01.599Z,69.15
2022-08-17T04:12:08.051Z,69.24
2022-08-17T04:15:13.634Z,69.33
2022-08-17T04:18:19.557Z,69.35
2022-08-17T04:21:27.700Z,69.48
2022-08-17T04:24:36.935Z,69.52
2022-08-17T04:27:43.189Z,69.54
2022-08-17T04:30:54.040Z,69.61
2022-08-17T04:34:01.737Z,69.61
2022-08-17T04:37:09.401Z,69.61
2022-08-17T04:40:37.651Z,69.56
2022-08-17T04:43:48.692Z,69.55
2022-08-17T04:46:54.504Z,69.58
2022-08-17T04:50:01.271Z,69.64
2022-08-17T04:53:08.133Z,69.69
2022-08-17T04:56:18.919Z,69.76
2022-08-17T04:59:30.780Z,69.85
2022-08-17T05:02:38.385Z,69.99
2022-08-17T05:05:50.428Z,70.10
2022-08-17T05:08:56.442Z,70.10
2022-08-17T05:12:03.175Z,70.11
2022-08-17T05:15:08.892Z,70.17
2022-08-17T05:18:14.746Z,70.16
2022-08-17T05:21:21.804Z,70.18
2022-08-17T05:24:38.324Z,70.22
2022-08-17T05:30:57.794Z,70.16
2022-08-17T05:34:05.318Z,70.15
2022-08-17T05:37:10.147Z,70.07
2022-08-17T05:40:17.027Z,70.00
2022-08-17T05:43:34.922Z,69.97
2022-08-17T05:46:42.429Z,69.92
2022-08-17T05:49:50.448Z,69.88
2022-08-17T05:53:37.517Z,69.80
2022-08-17T05:57:00.356Z,69.63
2022-08-17T06:00:31.254Z,69.58
2022-08-17T06:04:05.527Z,69.54
2022-08-17T06:07:41.012Z,69.38
2022-08-17T06:11:05.484Z,69.40
2022-08-17T06:14:37.847Z,69.33
2022-08-17T06:17:43.744Z,69.33
2022-08-17T06:21:05.764Z,69.27
2022-08-17T06:24:19.461Z,69.30
2022-08-17T06:27:53.884Z,69.25
2022-08-17T06:31:03.901Z,69.19
2022-08-17T06:34:12.916Z,69.10
2022-08-17T06:37:42.787Z,69.13
2022-08-17T06:41:14.302Z,69.15
2022-08-17T06:44:50.194Z,68.91
2022-08-17T06:48:04.875Z,68.93
2022-08-17T06:51:36.987Z,68.95
2022-08-17T06:55:07.469Z,68.95
2022-08-17T06:58:21.516Z,69.06
2022-08-17T07:01:28.617Z,68.98
2022-08-17T07:04:29.856Z,68.79
2022-08-17T07:07:40.733Z,68.62
2022-08-17T07:10:30.383Z,68.56
2022-08-17T07:13:51.843Z,68.45
2022-08-17T07:16:56.729Z,68.34
2022-08-17T07:20:03.578Z,68.27
2022-08-17T07:23:38.771Z,68.09
2022-08-17T07:26:45.502Z,68.11
2022-08-17T07:30:00.895Z,68.12
2022-08-17T07:33:24.425Z,68.15
2022-08-17T07:36:43.165Z,68.01
2022-08-17T07:40:14.802Z,67.99
2022-08-17T07:42:57.898Z,67.96
2022-08-17T07:46:51.791Z,67.96
2022-08-17T07:50:00.409Z,67.88
2022-08-17T07:53:06.984Z,67.87
2022-08-17T07:56:12.716Z,67.77
2022-08-17T07:59:33.848Z,67.67
2022-08-17T08:02:45.470Z,67.54
2022-08-17T08:05:50.124Z,67.41
2022-08-17T08:08:42.636Z,67.25
2022-08-17T08:11:44.479Z,67.18
2022-08-17T08:14:41.163Z,67.18
2022-08-17T08:17:30.596Z,67.19
2022-08-17T08:20:50.937Z,67.16
2022-08-17T08:23:58.141Z,67.22
2022-08-17T08:27:32.777Z,67.17
2022-08-17T08:30:39.647Z,67.15
2022-08-17T08:34:05.039Z,67.13
2022-08-17T08:37:35.577Z,67.15
2022-08-17T08:41:08.904Z,67.25
2022-08-17T08:44:22.016Z,67.32
2022-08-17T08:47:52.976Z,67.18
2022-08-17T08:51:23.260Z,66.98
2022-08-17T08:54:52.731Z,66.91
2022-08-17T08:58:32.068Z,66.96
2022-08-17T09:01:43.851Z,67.04
2022-08-17T09:05:33.008Z,67.02
2022-08-17T09:09:03.721Z,66.89
2022-08-17T09:12:33.280Z,66.94
2022-08-17T09:15:49.177Z,66.84
2022-08-17T09:19:04.452Z,66.69
2022-08-17T09:22:22.571Z,66.72
2022-08-17T09:25:48.769Z,66.63
2022-08-17T09:28:56.079Z,66.63
2022-08-17T09:32:21.337Z,66.48
2022-08-17T09:35:37.442Z,66.36
2022-08-17T09:38:48.874Z,66.16
2022-08-17T09:42:11.746Z,65.91
2022-08-17T09:45:40.851Z,65.75
2022-08-17T09:48:55.476Z,65.66
2022-08-17T09:52:06.036Z,65.63
2022-08-17T09:55:12.804Z,65.63
2022-08-17T09:58:29.131Z,65.47
2022-08-17T10:01:53.887Z,65.26
2022-08-17T10:05:29.858Z,65.03
2022-08-17T10:08:45.708Z,64.96
2022-08-17T10:12:17.379Z,64.93
2022-08-17T10:15:32.167Z,64.72
2022-08-17T10:19:09.229Z,64.59
2022-08-17T10:22:35.120Z,64.29
2022-08-17T10:25:56.154Z,64.25
2022-08-17T10:29:26.997Z,63.90
2022-08-17T10:32:59.858Z,63.58
2022-08-17T10:36:19.051Z,63.35
2022-08-17T10:40:01.159Z,63.39
2022-08-17T10:43:18.537Z,63.48
2022-08-17T10:46:42.507Z,63.42
2022-08-17T10:49:59.428Z,63.25
2022-08-17T10:53:19.437Z,63.19
2022-08-17T10:56:34.571Z,62.82
2022-08-17T10:59:54.630Z,62.65
2022-08-17T11:03:11.519Z,62.65
2022-08-17T11:06:23.830Z,62.51
2022-08-17T11:10:13.898Z,62.14
2022-08-17T11:13:36.392Z,61.73
2022-08-17T11:17:23.692Z,61.51
2022-08-17T11:21:17.125Z,61.38
2022-08-17T11:24:38.236Z,61.22
2022-08-17T11:27:48.060Z,61.16
2022-08-17T11:31:10.741Z,61.04
2022-08-17T11:34:30.499Z,60.99
2022-08-17T11:37:59.534Z,60.89
2022-08-17T11:41:21.147Z,61.05
2022-08-17T11:45:09.280Z,61.05
2022-08-17T11:49:00.646Z,60.22
2022-08-17T11:52:21.153Z,60.22
2022-08-17T11:55:46.888Z,59.82
2022-08-17T11:58:59.942Z,59.77
2022-08-17T12:02:09.749Z,59.56
2022-08-17T12:05:34.167Z,59.41
2022-08-17T12:08:40.966Z,59.36
2022-08-17T12:12:13.035Z,58.73
2022-08-17T12:15:11.049Z,58.73
2022-08-17T12:18:15.766Z,58.80
2022-08-17T12:21:45.987Z,58.90
2022-08-17T12:25:20.692Z,59.14
2022-08-17T12:28:41.362Z,58.73
2022-08-17T12:31:54.635Z,58.33
2022-08-17T12:35:10.852Z,58.33
2022-08-17T12:38:28.156Z,58.24
2022-08-17T12:41:35.970Z,58.05
2022-08-17T12:44:53.409Z,57.91
2022-08-17T12:48:00.103Z,57.75
2022-08-17T12:51:11.334Z,57.66
2022-08-17T12:54:18.930Z,57.56
2022-08-17T12:57:29.671Z,57.41
2022-08-17T13:00:47.700Z,57.27
2022-08-17T13:04:01.031Z,57.19
2022-08-17T13:07:05.398Z,56.93
2022-08-17T13:10:13.399Z,56.61
2022-08-17T13:13:39.176Z,56.44
2022-08-17T13:16:45.081Z,56.29
2022-08-17T13:19:53.798Z,56.15
2022-08-17T13:23:02.562Z,56.00
2022-08-17T13:26:17.350Z,55.80
2022-08-17T13:29:53.254Z,55.64
2022-08-17T13:33:04.775Z,55.40
2022-08-17T13:36:12.718Z,55.15
2022-08-17T13:39:35.762Z,55.01
2022-08-17T13:43:01.115Z,54.89
2022-08-17T13:46:08.508Z,54.75
2022-08-17T13:49:21.351Z,54.58
2022-08-17T13:52:55.314Z,54.39
2022-08-17T13:56:37.117Z,54.32
2022-08-17T13:59:53.900Z,54.28
2022-08-17T14:02:40.348Z,54.44
2022-08-17T14:05:47.081Z,54.11
2022-08-17T14:08:53.047Z,54.11
2022-08-17T14:12:01.534Z,53.91
2022-08-17T14:15:08.935Z,53.80
2022-08-17T14:18:14.716Z,53.80
2022-08-17T14:21:22.318Z,53.78
2022-08-17T14:24:45.091Z,53.75
2022-08-17T14:27:52.852Z,53.72
2022-08-17T14:30:59.226Z,53.64
2022-08-17T14:34:06.219Z,53.53
2022-08-17T14:37:11.162Z,53.42
2022-08-17T14:40:22.339Z,53.31
2022-08-17T14:43:29.611Z,53.18
2022-08-17T14:46:36.102Z,53.05
2022-08-17T14:49:43.403Z,52.91
2022-08-17T14:52:56.231Z,52.87
2022-08-17T14:56:08.479Z,52.65
2022-08-17T14:59:14.280Z,52.57
2022-08-17T15:02:20.919Z,52.36
2022-08-17T15:05:26.880Z,52.34
2022-08-17T15:08:34.628Z,52.00
2022-08-17T15:11:41.826Z,52.00
2022-08-17T15:14:51.857Z,52.34
2022-08-17T15:17:58.985Z,52.44
2022-08-17T15:21:05.616Z,52.08
2022-08-17T15:24:14.272Z,52.08
2022-08-17T15:27:32.280Z,52.04
2022-08-17T15:30:33.950Z,52.10
2022-08-17T15:33:41.523Z,52.13
2022-08-17T15:36:49.381Z,52.25
2022-08-17T15:39:53.926Z,52.36
2022-08-17T15:43:01.063Z,52.45
2022-08-17T15:46:21.783Z,52.58
2022-08-17T15:49:28.476Z,52.72
2022-08-17T15:52:42.298Z,52.85
2022-08-17T15:55:51.596Z,53.01
2022-08-17T15:59:03.446Z,53.12
2022-08-17T16:03:14.277Z,53.26
2022-08-17T16:05:25.247Z,53.39
2022-08-17T16:08:36.235Z,53.57
2022-08-17T16:11:44.645Z,53.70
2022-08-17T16:14:53.237Z,53.80
2022-08-17T16:18:00.733Z,53.98
2022-08-17T16:21:09.293Z,54.16
2022-08-17T16:24:17.584Z,54.27
2022-08-17T16:27:24.330Z,54.45
2022-08-17T16:30:30.306Z,54.56
2022-08-17T16:33:37.308Z,54.67
2022-08-17T16:36:55.332Z,54.77
2022-08-17T16:39:52.518Z,54.87
2022-08-17T16:42:58.215Z,54.99
2022-08-17T16:46:07.943Z,55.12
2022-08-17T16:49:35.921Z,55.21
2022-08-17T16:52:32.309Z,55.28
2022-08-17T16:55:36.562Z,55.35
2022-08-17T16:58:44.213Z,55.46
2022-08-17T17:01:51.900Z,55.57
2022-08-17T17:05:09.703Z,55.68
2022-08-17T17:08:23.407Z,55.82
2022-08-17T17:11:45.257Z,55.96
2022-08-17T17:15:00.209Z,56.11
2022-08-17T17:18:08.221Z,56.24
2022-08-17T17:21:12.935Z,56.39
2022-08-17T17:24:23.373Z,56.51
2022-08-17T17:27:55.323Z,56.62
2022-08-17T17:31:13.832Z,56.72
2022-08-17T17:34:20.460Z,56.80
2022-08-17T17:37:31.137Z,56.90
2022-08-17T17:40:49.745Z,56.93
2022-08-17T17:43:56.063Z,57.01
2022-08-17T17:47:14.821Z,57.19
2022-08-17T17:50:21.877Z,57.30
2022-08-17T17:53:43.058Z,57.46
2022-08-17T17:56:59.544Z,57.53
2022-08-17T18:00:22.752Z,57.65
2022-08-17T18:03:59.415Z,57.75
2022-08-17T18:07:26.588Z,57.86
2022-08-17T18:10:43.161Z,57.91
2022-08-17T18:14:29.897Z,57.97
2022-08-17T18:17:37.279Z,58.02
2022-08-17T18:20:53.744Z,58.09
2022-08-17T18:23:54.544Z,58.20
2022-08-17T18:27:09.417Z,58.30
2022-08-17T18:30:30.070Z,58.40
2022-08-17T18:33:37.766Z,58.53
2022-08-17T18:36:47.848Z,58.62
2022-08-17T18:39:55.484Z,58.73
2022-08-17T18:43:04.402Z,58.85
2022-08-17T18:46:11.974Z,58.93
2022-08-17T18:49:21.905Z,59.03
2022-08-17T18:52:44.817Z,59.12
2022-08-17T18:55:51.173Z,59.17
2022-08-17T18:58:56.264Z,59.26
2022-08-17T19:02:38.750Z,59.35
2022-08-17T19:05:48.882Z,59.44
2022-08-17T19:08:56.572Z,59.55
2022-08-17T19:12:02.557Z,59.63
2022-08-17T19:15:08.554Z,59.71
2022-08-17T19:18:30.741Z,59.75
2022-08-17T19:21:44.040Z,59.79
2022-08-17T19:24:53.155Z,59.90
2022-08-17T19:28:21.508Z,59.98
2022-08-17T19:31:24.775Z,60.06
2022-08-17T19:34:33.990Z,60.15
2022-08-17T19:37:56.966Z,60.24
2022-08-17T19:41:24.700Z,60.33
2022-08-17T19:45:06.959Z,60.45
2022-08-17T19:48:36.724Z,60.55
2022-08-17T19:52:09.086Z,60.61
2022-08-17T19:55:44.781Z,60.69
2022-08-17T19:59:08.670Z,60.68
2022-08-17T20:02:28.862Z,60.75
2022-08-17T20:06:08.878Z,60.89
2022-08-17T20:08:55.919Z,61.03
2022-08-17T20:12:08.037Z,61.16
2022-08-17T20:15:18.691Z,61.16
2022-08-17T20:18:29.300Z,61.09
2022-08-17T20:22:16.980Z,61.07
2022-08-17T20:25:30.549Z,61.15
2022-08-17T20:28:46.667Z,61.29
2022-08-17T20:32:08.543Z,61.47
2022-08-17T20:35:17.480Z,61.69
2022-08-17T20:38:29.407Z,61.83
2022-08-17T20:41:38.241Z,61.95
2022-08-17T20:44:49.415Z,61.99
2022-08-17T20:51:33.801Z,62.17
2022-08-17T20:55:10.673Z,62.19
2022-08-17T20:58:32.410Z,62.20
2022-08-17T21:01:52.122Z,62.34
2022-08-17T21:05:12.273Z,62.44
2022-08-17T21:08:30.840Z,62.55
2022-08-17T21:11:58.247Z,62.70
2022-08-17T21:15:18.285Z,62.83
2022-08-17T21:18:51.790Z,62.98
2022-08-17T21:22:21.397Z,63.08
2022-08-17T21:25:58.996Z,63.19
2022-08-17T21:29:31.936Z,63.38
2022-08-17T21:32:33.307Z,63.49
2022-08-17T21:35:42.275Z,63.70
2022-08-17T21:39:03.911Z,63.78
2022-08-17T21:42:11.414Z,63.79
2022-08-17T21:45:37.542Z,63.83
2022-08-17T21:48:44.824Z,63.98
2022-08-17T21:52:06.047Z,64.13
2022-08-17T21:55:14.147Z,64.17
2022-08-17T21:58:26.676Z,64.29
2022-08-17T22:01:54.740Z,64.40
2022-08-17T22:05:15.029Z,64.55
2022-08-17T22:08:33.603Z,64.73
2022-08-17T22:11:41.614Z,64.79
2022-08-17T22:23:35.833Z,64.82
2022-08-17T22:27:02.572Z,64.92
2022-08-17T22:30:13.151Z,65.17
2022-08-17T22:34:05.695Z,65.40
2022-08-17T22:40:40.148Z,65.52
2022-08-17T22:43:46.807Z,65.64
2022-08-17T22:46:57.590Z,65.74
2022-08-17T22:50:17.061Z,65.74
2022-08-17T22:53:53.742Z,65.71
2022-08-17T22:57:35.235Z,65.80
2022-08-17T23:00:58.194Z,65.97
2022-08-17T23:04:12.851Z,66.20
2022-08-17T23:07:18.613Z,66.26
2022-08-17T23:10:25.898Z,66.30
2022-08-17T23:13:33.561Z,66.42
2022-08-17T23:16:41.201Z,66.56
2022-08-17T23:19:47.160Z,66.66
2022-08-17T23:22:53.301Z,66.73
2022-08-17T23:26:01.858Z,66.80
2022-08-17T23:29:09.006Z,66.90
2022-08-17T23:32:16.330Z,67.03
2022-08-17T23:35:39.062Z,67.17
2022-08-17T23:38:33.255Z,67.35
2022-08-17T23:41:39.513Z,67.47
2022-08-17T23:44:45.444Z,67.45
2022-08-17T23:47:50.852Z,67.38
2022-08-17T23:50:58.569Z,67.39
2022-08-17T23:54:13.495Z,67.27
2022-08-17T23:57:19.485Z,67.36
